sensor_id;sensor_type;location;lat;lon;timestamp;temperature;humidity
9437;DHT22;4757;59.334;18.034;2022-12-13T00:01:45;-2.80;99.90
9437;DHT22;4757;59.334;18.034;2022-12-13T00:04:13;-2.80;99.90
9437;DHT22;4757;59.334;18.034;2022-12-13T00:06:40;-2.80;99.90
9437;DHT22;4757;59.334;18.034;2022-12-13T00:09:09;-2.90;99.90
9437;DHT22;4757;59.334;18.034;2022-12-13T00:11:36;-2.90;99.90
9437;DHT22;4757;59.334;18.034;2022-12-13T00:14:03;-2.90;99.90
9437;DHT22;4757;59.334;18.034;2022-12-13T00:16:30;-2.90;99.90
9437;DHT22;4757;59.334;18.034;2022-12-13T00:18:58;-3.00;99.90
9437;DHT22;4757;59.334;18.034;2022-12-13T00:21:28;-3.00;99.90
9437;DHT22;4757;59.334;18.034;2022-12-13T00:23:57;-3.00;99.90
9437;DHT22;4757;59.334;18.034;2022-12-13T00:26:26;-3.00;99.90
9437;DHT22;4757;59.334;18.034;2022-12-13T00:28:54;-3.00;99.90
9437;DHT22;4757;59.334;18.034;2022-12-13T00:31:23;-3.00;99.90
9437;DHT22;4757;59.334;18.034;2022-12-13T00:34:13;-3.00;99.90
9437;DHT22;4757;59.334;18.034;2022-12-13T00:36:40;-3.00;99.90
9437;DHT22;4757;59.334;18.034;2022-12-13T00:39:07;-3.10;99.90
9437;DHT22;4757;59.334;18.034;2022-12-13T00:41:35;-3.10;99.90
9437;DHT22;4757;59.334;18.034;2022-12-13T00:44:03;-3.20;99.90
9437;DHT22;4757;59.334;18.034;2022-12-13T00:46:31;-3.20;99.90
9437;DHT22;4757;59.334;18.034;2022-12-13T00:49:00;-3.20;99.90
9437;DHT22;4757;59.334;18.034;2022-12-13T00:51:28;-3.30;99.90
9437;DHT22;4757;59.334;18.034;2022-12-13T00:53:59;-3.30;99.90
9437;DHT22;4757;59.334;18.034;2022-12-13T00:56:28;-3.30;99.90
9437;DHT22;4757;59.334;18.034;2022-12-13T00:58:56;-3.50;99.90
9437;DHT22;4757;59.334;18.034;2022-12-13T01:01:28;-3.50;99.90
9437;DHT22;4757;59.334;18.034;2022-12-13T01:03:58;-3.60;99.90
9437;DHT22;4757;59.334;18.034;2022-12-13T01:06:30;-3.70;99.90
9437;DHT22;4757;59.334;18.034;2022-12-13T01:09:00;-3.70;99.90
9437;DHT22;4757;59.334;18.034;2022-12-13T01:11:28;-3.70;99.90
9437;DHT22;4757;59.334;18.034;2022-12-13T01:13:55;-3.60;99.90
9437;DHT22;4757;59.334;18.034;2022-12-13T01:16:22;-3.70;99.90
9437;DHT22;4757;59.334;18.034;2022-12-13T01:18:49;-3.70;99.90
9437;DHT22;4757;59.334;18.034;2022-12-13T01:21:18;-3.70;99.90
9437;DHT22;4757;59.334;18.034;2022-12-13T01:23:48;-3.70;99.90
9437;DHT22;4757;59.334;18.034;2022-12-13T01:26:17;-3.80;99.90
9437;DHT22;4757;59.334;18.034;2022-12-13T01:28:45;-3.80;99.90
9437;DHT22;4757;59.334;18.034;2022-12-13T01:31:15;-3.70;99.90
9437;DHT22;4757;59.334;18.034;2022-12-13T01:33:43;-3.80;99.90
9437;DHT22;4757;59.334;18.034;2022-12-13T01:36:13;-3.80;99.90
9437;DHT22;4757;59.334;18.034;2022-12-13T01:38:40;-3.90;99.90
9437;DHT22;4757;59.334;18.034;2022-12-13T01:41:14;-3.80;99.90
9437;DHT22;4757;59.334;18.034;2022-12-13T01:46:15;-3.80;99.90
9437;DHT22;4757;59.334;18.034;2022-12-13T01:48:54;-3.80;99.90
9437;DHT22;4757;59.334;18.034;2022-12-13T01:51:46;-3.90;99.90
9437;DHT22;4757;59.334;18.034;2022-12-13T01:54:18;-3.90;99.90
9437;DHT22;4757;59.334;18.034;2022-12-13T01:56:52;-4.00;99.90
9437;DHT22;4757;59.334;18.034;2022-12-13T01:59:27;-3.90;99.90
9437;DHT22;4757;59.334;18.034;2022-12-13T02:01:54;-4.00;99.90
9437;DHT22;4757;59.334;18.034;2022-12-13T02:04:33;-3.90;99.90
9437;DHT22;4757;59.334;18.034;2022-12-13T02:07:13;-3.90;99.90
9437;DHT22;4757;59.334;18.034;2022-12-13T02:09:50;-4.00;99.90
9437;DHT22;4757;59.334;18.034;2022-12-13T02:12:25;-3.90;99.90
9437;DHT22;4757;59.334;18.034;2022-12-13T02:15:00;-3.90;99.90
9437;DHT22;4757;59.334;18.034;2022-12-13T02:31:08;-3.90;99.90
9437;DHT22;4757;59.334;18.034;2022-12-13T02:36:32;-3.90;99.90
9437;DHT22;4757;59.334;18.034;2022-12-13T02:39:16;-4.00;99.90
9437;DHT22;4757;59.334;18.034;2022-12-13T02:45:17;-4.10;99.90
9437;DHT22;4757;59.334;18.034;2022-12-13T02:47:48;-4.10;99.90
9437;DHT22;4757;59.334;18.034;2022-12-13T02:50:18;-4.20;99.90
9437;DHT22;4757;59.334;18.034;2022-12-13T02:52:47;-4.20;99.90
9437;DHT22;4757;59.334;18.034;2022-12-13T02:55:15;-4.20;99.90
9437;DHT22;4757;59.334;18.034;2022-12-13T02:57:44;-4.20;99.90
9437;DHT22;4757;59.334;18.034;2022-12-13T03:00:20;-4.30;99.90
9437;DHT22;4757;59.334;18.034;2022-12-13T03:03:06;-4.20;99.90
9437;DHT22;4757;59.334;18.034;2022-12-13T03:09:36;-4.40;99.90
9437;DHT22;4757;59.334;18.034;2022-12-13T03:12:22;-4.40;99.90
9437;DHT22;4757;59.334;18.034;2022-12-13T03:18:07;-4.70;99.90
9437;DHT22;4757;59.334;18.034;2022-12-13T03:20:56;-4.70;99.90
9437;DHT22;4757;59.334;18.034;2022-12-13T03:23:24;-4.90;99.90
9437;DHT22;4757;59.334;18.034;2022-12-13T03:25:56;-4.80;99.90
9437;DHT22;4757;59.334;18.034;2022-12-13T03:28:24;-4.90;99.90
9437;DHT22;4757;59.334;18.034;2022-12-13T03:30:51;-4.90;99.90
9437;DHT22;4757;59.334;18.034;2022-12-13T03:33:19;-5.00;99.90
9437;DHT22;4757;59.334;18.034;2022-12-13T03:35:46;-4.90;99.90
9437;DHT22;4757;59.334;18.034;2022-12-13T03:38:14;-4.90;99.90
9437;DHT22;4757;59.334;18.034;2022-12-13T03:40:50;-4.90;99.90
9437;DHT22;4757;59.334;18.034;2022-12-13T03:43:18;-5.00;99.90
9437;DHT22;4757;59.334;18.034;2022-12-13T03:45:48;-5.00;99.90
9437;DHT22;4757;59.334;18.034;2022-12-13T03:48:15;-5.10;99.90
9437;DHT22;4757;59.334;18.034;2022-12-13T03:50:50;-5.00;99.90
9437;DHT22;4757;59.334;18.034;2022-12-13T03:53:17;-5.10;99.90
9437;DHT22;4757;59.334;18.034;2022-12-13T03:56:03;-5.10;99.90
9437;DHT22;4757;59.334;18.034;2022-12-13T03:58:31;-5.10;99.90
9437;DHT22;4757;59.334;18.034;2022-12-13T04:01:07;-5.10;99.90
9437;DHT22;4757;59.334;18.034;2022-12-13T04:03:36;-5.20;99.90
9437;DHT22;4757;59.334;18.034;2022-12-13T04:06:04;-5.10;99.90
9437;DHT22;4757;59.334;18.034;2022-12-13T04:08:31;-5.20;99.90
9437;DHT22;4757;59.334;18.034;2022-12-13T04:10:58;-5.20;99.90
9437;DHT22;4757;59.334;18.034;2022-12-13T04:13:26;-5.20;99.90
9437;DHT22;4757;59.334;18.034;2022-12-13T04:15:59;-5.30;99.90
9437;DHT22;4757;59.334;18.034;2022-12-13T04:18:30;-5.30;99.90
9437;DHT22;4757;59.334;18.034;2022-12-13T04:20:57;-5.30;99.90
9437;DHT22;4757;59.334;18.034;2022-12-13T04:23:24;-5.30;99.90
9437;DHT22;4757;59.334;18.034;2022-12-13T04:25:51;-5.30;99.90
9437;DHT22;4757;59.334;18.034;2022-12-13T04:28:18;-5.20;99.90
9437;DHT22;4757;59.334;18.034;2022-12-13T04:30:51;-5.20;99.90
9437;DHT22;4757;59.334;18.034;2022-12-13T04:33:23;-5.30;99.90
9437;DHT22;4757;59.334;18.034;2022-12-13T04:35:51;-5.20;99.90
9437;DHT22;4757;59.334;18.034;2022-12-13T04:38:18;-5.30;99.90
9437;DHT22;4757;59.334;18.034;2022-12-13T04:40:45;-5.30;99.90
9437;DHT22;4757;59.334;18.034;2022-12-13T04:43:12;-5.30;99.90
9437;DHT22;4757;59.334;18.034;2022-12-13T04:45:39;-5.30;99.90
9437;DHT22;4757;59.334;18.034;2022-12-13T04:48:06;-5.30;99.90
9437;DHT22;4757;59.334;18.034;2022-12-13T04:50:34;-5.50;99.90
9437;DHT22;4757;59.334;18.034;2022-12-13T04:53:01;-5.50;99.90
9437;DHT22;4757;59.334;18.034;2022-12-13T04:55:28;-5.50;99.90
9437;DHT22;4757;59.334;18.034;2022-12-13T04:57:55;-5.50;99.90
9437;DHT22;4757;59.334;18.034;2022-12-13T05:00:22;-5.50;99.90
9437;DHT22;4757;59.334;18.034;2022-12-13T05:02:49;-5.50;99.90
9437;DHT22;4757;59.334;18.034;2022-12-13T05:05:16;-5.40;99.90
9437;DHT22;4757;59.334;18.034;2022-12-13T05:07:44;-5.60;99.90
9437;DHT22;4757;59.334;18.034;2022-12-13T05:10:12;-5.60;99.90
9437;DHT22;4757;59.334;18.034;2022-12-13T05:12:59;-5.60;99.90
9437;DHT22;4757;59.334;18.034;2022-12-13T05:15:27;-5.50;99.90
9437;DHT22;4757;59.334;18.034;2022-12-13T05:17:58;-5.50;99.90
9437;DHT22;4757;59.334;18.034;2022-12-13T05:20:25;-5.50;99.90
9437;DHT22;4757;59.334;18.034;2022-12-13T05:22:57;-5.60;99.90
9437;DHT22;4757;59.334;18.034;2022-12-13T05:25:25;-5.60;99.90
9437;DHT22;4757;59.334;18.034;2022-12-13T05:27:52;-5.60;99.90
9437;DHT22;4757;59.334;18.034;2022-12-13T05:30:22;-5.60;99.90
9437;DHT22;4757;59.334;18.034;2022-12-13T05:32:49;-5.60;99.90
9437;DHT22;4757;59.334;18.034;2022-12-13T05:35:17;-5.60;99.90
9437;DHT22;4757;59.334;18.034;2022-12-13T05:37:50;-5.60;99.90
9437;DHT22;4757;59.334;18.034;2022-12-13T05:40:21;-5.60;99.90
9437;DHT22;4757;59.334;18.034;2022-12-13T05:42:49;-5.60;99.90
9437;DHT22;4757;59.334;18.034;2022-12-13T05:45:19;-5.60;99.90
9437;DHT22;4757;59.334;18.034;2022-12-13T05:47:46;-5.70;99.90
9437;DHT22;4757;59.334;18.034;2022-12-13T05:50:15;-5.70;99.90
9437;DHT22;4757;59.334;18.034;2022-12-13T05:52:42;-5.80;99.90
9437;DHT22;4757;59.334;18.034;2022-12-13T05:55:11;-5.70;99.90
9437;DHT22;4757;59.334;18.034;2022-12-13T05:57:38;-5.60;99.90
9437;DHT22;4757;59.334;18.034;2022-12-13T06:00:08;-5.70;99.90
9437;DHT22;4757;59.334;18.034;2022-12-13T06:02:55;-5.60;99.90
9437;DHT22;4757;59.334;18.034;2022-12-13T06:05:26;-5.70;99.90
9437;DHT22;4757;59.334;18.034;2022-12-13T06:07:54;-5.70;99.90
9437;DHT22;4757;59.334;18.034;2022-12-13T06:10:23;-5.70;99.90
9437;DHT22;4757;59.334;18.034;2022-12-13T06:13:01;-5.60;99.90
9437;DHT22;4757;59.334;18.034;2022-12-13T06:15:47;-5.70;99.90
9437;DHT22;4757;59.334;18.034;2022-12-13T06:18:15;-5.70;99.90
9437;DHT22;4757;59.334;18.034;2022-12-13T06:20:42;-5.70;99.90
9437;DHT22;4757;59.334;18.034;2022-12-13T06:23:10;-5.70;99.90
9437;DHT22;4757;59.334;18.034;2022-12-13T06:25:37;-5.70;99.90
9437;DHT22;4757;59.334;18.034;2022-12-13T06:28:04;-5.60;99.90
9437;DHT22;4757;59.334;18.034;2022-12-13T06:30:31;-5.70;99.90
9437;DHT22;4757;59.334;18.034;2022-12-13T06:32:58;-5.70;99.90
9437;DHT22;4757;59.334;18.034;2022-12-13T06:35:25;-5.60;99.90
9437;DHT22;4757;59.334;18.034;2022-12-13T06:37:57;-5.60;99.90
9437;DHT22;4757;59.334;18.034;2022-12-13T06:40:28;-5.60;99.90
9437;DHT22;4757;59.334;18.034;2022-12-13T06:42:56;-5.60;99.90
9437;DHT22;4757;59.334;18.034;2022-12-13T06:45:24;-5.60;99.90
9437;DHT22;4757;59.334;18.034;2022-12-13T06:47:51;-5.60;99.90
9437;DHT22;4757;59.334;18.034;2022-12-13T06:50:18;-5.60;99.90
9437;DHT22;4757;59.334;18.034;2022-12-13T06:52:46;-5.50;99.90
9437;DHT22;4757;59.334;18.034;2022-12-13T06:55:14;-5.70;99.90
9437;DHT22;4757;59.334;18.034;2022-12-13T06:57:49;-5.60;99.90
9437;DHT22;4757;59.334;18.034;2022-12-13T07:00:20;-5.50;99.90
9437;DHT22;4757;59.334;18.034;2022-12-13T07:02:54;-5.50;99.90
9437;DHT22;4757;59.334;18.034;2022-12-13T07:05:22;-5.50;99.90
9437;DHT22;4757;59.334;18.034;2022-12-13T07:07:56;-5.70;99.90
9437;DHT22;4757;59.334;18.034;2022-12-13T07:10:24;-5.60;99.90
9437;DHT22;4757;59.334;18.034;2022-12-13T07:12:51;-5.80;99.90
9437;DHT22;4757;59.334;18.034;2022-12-13T07:15:18;-5.70;99.90
9437;DHT22;4757;59.334;18.034;2022-12-13T07:17:48;-5.70;99.90
9437;DHT22;4757;59.334;18.034;2022-12-13T07:20:17;-5.60;99.90
9437;DHT22;4757;59.334;18.034;2022-12-13T07:22:45;-5.50;99.90
9437;DHT22;4757;59.334;18.034;2022-12-13T07:25:23;-5.60;99.90
9437;DHT22;4757;59.334;18.034;2022-12-13T07:28:02;-5.60;99.90
9437;DHT22;4757;59.334;18.034;2022-12-13T07:30:34;-5.50;99.90
9437;DHT22;4757;59.334;18.034;2022-12-13T07:33:10;-5.40;99.90
9437;DHT22;4757;59.334;18.034;2022-12-13T07:35:40;-5.40;99.90
9437;DHT22;4757;59.334;18.034;2022-12-13T07:38:09;-5.60;99.90
9437;DHT22;4757;59.334;18.034;2022-12-13T07:40:38;-5.40;99.90
9437;DHT22;4757;59.334;18.034;2022-12-13T07:43:05;-5.40;99.90
9437;DHT22;4757;59.334;18.034;2022-12-13T07:45:35;-5.30;99.90
9437;DHT22;4757;59.334;18.034;2022-12-13T07:48:04;-5.50;99.90
9437;DHT22;4757;59.334;18.034;2022-12-13T07:50:31;-5.50;99.90
9437;DHT22;4757;59.334;18.034;2022-12-13T07:53:07;-5.50;99.90
9437;DHT22;4757;59.334;18.034;2022-12-13T07:55:35;-5.50;99.90
9437;DHT22;4757;59.334;18.034;2022-12-13T07:58:20;-5.60;99.90
9437;DHT22;4757;59.334;18.034;2022-12-13T08:00:51;-5.40;99.90
9437;DHT22;4757;59.334;18.034;2022-12-13T08:03:18;-5.40;99.90
9437;DHT22;4757;59.334;18.034;2022-12-13T08:06:08;-5.60;99.90
9437;DHT22;4757;59.334;18.034;2022-12-13T08:08:41;-5.60;99.90
9437;DHT22;4757;59.334;18.034;2022-12-13T08:11:13;-5.50;99.90
9437;DHT22;4757;59.334;18.034;2022-12-13T08:13:43;-5.50;99.90
9437;DHT22;4757;59.334;18.034;2022-12-13T08:16:11;-5.50;99.90
9437;DHT22;4757;59.334;18.034;2022-12-13T08:18:57;-5.40;99.90
9437;DHT22;4757;59.334;18.034;2022-12-13T08:21:37;-5.60;99.90
9437;DHT22;4757;59.334;18.034;2022-12-13T08:24:27;-5.50;99.90
9437;DHT22;4757;59.334;18.034;2022-12-13T08:26:57;-5.50;99.90
9437;DHT22;4757;59.334;18.034;2022-12-13T08:29:29;-5.50;99.90
9437;DHT22;4757;59.334;18.034;2022-12-13T08:32:10;-5.60;99.90
9437;DHT22;4757;59.334;18.034;2022-12-13T08:34:38;-5.60;99.90
9437;DHT22;4757;59.334;18.034;2022-12-13T08:37:07;-5.40;99.90
9437;DHT22;4757;59.334;18.034;2022-12-13T08:39:35;-5.30;99.90
9437;DHT22;4757;59.334;18.034;2022-12-13T08:42:08;-5.40;99.90
9437;DHT22;4757;59.334;18.034;2022-12-13T08:44:47;-5.40;99.90
9437;DHT22;4757;59.334;18.034;2022-12-13T08:47:17;-5.30;99.90
9437;DHT22;4757;59.334;18.034;2022-12-13T08:50:00;-5.30;99.90
9437;DHT22;4757;59.334;18.034;2022-12-13T08:52:34;-5.40;99.90
9437;DHT22;4757;59.334;18.034;2022-12-13T08:55:07;-5.40;99.90
9437;DHT22;4757;59.334;18.034;2022-12-13T08:57:36;-5.40;99.90
9437;DHT22;4757;59.334;18.034;2022-12-13T09:00:06;-5.60;99.90
9437;DHT22;4757;59.334;18.034;2022-12-13T09:02:34;-5.70;99.90
9437;DHT22;4757;59.334;18.034;2022-12-13T09:05:05;-5.40;99.90
9437;DHT22;4757;59.334;18.034;2022-12-13T09:07:33;-5.40;99.90
9437;DHT22;4757;59.334;18.034;2022-12-13T09:10:08;-5.50;99.90
9437;DHT22;4757;59.334;18.034;2022-12-13T09:12:54;-5.70;99.90
9437;DHT22;4757;59.334;18.034;2022-12-13T09:15:31;-5.70;99.90
9437;DHT22;4757;59.334;18.034;2022-12-13T09:18:00;-5.60;99.90
9437;DHT22;4757;59.334;18.034;2022-12-13T09:20:32;-5.60;99.90
9437;DHT22;4757;59.334;18.034;2022-12-13T09:23:07;-5.70;99.90
9437;DHT22;4757;59.334;18.034;2022-12-13T09:25:57;-5.80;99.90
9437;DHT22;4757;59.334;18.034;2022-12-13T09:28:33;-5.70;99.90
9437;DHT22;4757;59.334;18.034;2022-12-13T09:31:13;-5.80;99.90
9437;DHT22;4757;59.334;18.034;2022-12-13T09:33:41;-6.00;99.90
9437;DHT22;4757;59.334;18.034;2022-12-13T09:36:17;-6.10;99.90
9437;DHT22;4757;59.334;18.034;2022-12-13T09:38:45;-6.10;99.90
9437;DHT22;4757;59.334;18.034;2022-12-13T09:41:31;-6.10;99.90
9437;DHT22;4757;59.334;18.034;2022-12-13T09:44:18;-6.00;99.90
9437;DHT22;4757;59.334;18.034;2022-12-13T09:47:12;-6.10;99.90
9437;DHT22;4757;59.334;18.034;2022-12-13T09:49:50;-6.10;99.90
9437;DHT22;4757;59.334;18.034;2022-12-13T09:52:21;-6.00;99.90
9437;DHT22;4757;59.334;18.034;2022-12-13T09:54:55;-6.20;99.90
9437;DHT22;4757;59.334;18.034;2022-12-13T09:57:28;-6.20;99.90
9437;DHT22;4757;59.334;18.034;2022-12-13T10:00:02;-6.30;99.90
9437;DHT22;4757;59.334;18.034;2022-12-13T10:02:33;-6.30;99.90
9437;DHT22;4757;59.334;18.034;2022-12-13T10:05:28;-6.30;99.90
9437;DHT22;4757;59.334;18.034;2022-12-13T10:08:37;-6.30;99.90
9437;DHT22;4757;59.334;18.034;2022-12-13T10:11:10;-6.30;99.90
9437;DHT22;4757;59.334;18.034;2022-12-13T10:13:44;-6.20;99.90
9437;DHT22;4757;59.334;18.034;2022-12-13T10:16:27;-6.20;99.90
9437;DHT22;4757;59.334;18.034;2022-12-13T10:21:57;-6.50;99.90
9437;DHT22;4757;59.334;18.034;2022-12-13T10:24:45;-6.30;99.90
9437;DHT22;4757;59.334;18.034;2022-12-13T10:27:16;-6.30;99.90
9437;DHT22;4757;59.334;18.034;2022-12-13T10:32:56;-6.50;99.90
9437;DHT22;4757;59.334;18.034;2022-12-13T10:35:25;-6.40;99.90
9437;DHT22;4757;59.334;18.034;2022-12-13T10:37:53;-6.30;99.90
9437;DHT22;4757;59.334;18.034;2022-12-13T10:40:30;-6.30;99.90
9437;DHT22;4757;59.334;18.034;2022-12-13T10:43:21;-6.10;99.90
9437;DHT22;4757;59.334;18.034;2022-12-13T10:51:13;-6.30;99.90
9437;DHT22;4757;59.334;18.034;2022-12-13T10:56:16;-6.40;99.90
9437;DHT22;4757;59.334;18.034;2022-12-13T10:58:51;-6.50;99.90
9437;DHT22;4757;59.334;18.034;2022-12-13T11:01:42;-6.40;99.90
9437;DHT22;4757;59.334;18.034;2022-12-13T11:04:26;-6.30;99.90
9437;DHT22;4757;59.334;18.034;2022-12-13T11:06:57;-6.50;99.90
9437;DHT22;4757;59.334;18.034;2022-12-13T11:09:30;-6.50;99.90
9437;DHT22;4757;59.334;18.034;2022-12-13T11:12:13;-6.60;99.90
9437;DHT22;4757;59.334;18.034;2022-12-13T11:14:59;-6.50;99.90
9437;DHT22;4757;59.334;18.034;2022-12-13T11:17:29;-6.60;99.90
9437;DHT22;4757;59.334;18.034;2022-12-13T11:20:00;-6.60;99.90
9437;DHT22;4757;59.334;18.034;2022-12-13T11:22:31;-6.40;99.90
9437;DHT22;4757;59.334;18.034;2022-12-13T11:25:22;-6.50;99.90
9437;DHT22;4757;59.334;18.034;2022-12-13T11:33:36;-6.70;99.90
9437;DHT22;4757;59.334;18.034;2022-12-13T11:36:34;-6.50;99.90
9437;DHT22;4757;59.334;18.034;2022-12-13T11:39:23;-6.40;99.90
9437;DHT22;4757;59.334;18.034;2022-12-13T11:44:46;-6.40;99.90
9437;DHT22;4757;59.334;18.034;2022-12-13T11:47:24;-6.40;99.90
9437;DHT22;4757;59.334;18.034;2022-12-13T11:49:53;-6.50;99.90
9437;DHT22;4757;59.334;18.034;2022-12-13T11:52:39;-6.60;99.90
9437;DHT22;4757;59.334;18.034;2022-12-13T11:55:27;-6.50;99.90
9437;DHT22;4757;59.334;18.034;2022-12-13T12:00:36;-6.80;99.90
9437;DHT22;4757;59.334;18.034;2022-12-13T12:03:17;-7.00;99.90
9437;DHT22;4757;59.334;18.034;2022-12-13T12:05:50;-7.00;99.90
9437;DHT22;4757;59.334;18.034;2022-12-13T12:11:21;-7.00;99.90
9437;DHT22;4757;59.334;18.034;2022-12-13T12:14:04;-6.90;99.90
9437;DHT22;4757;59.334;18.034;2022-12-13T12:16:54;-6.80;99.90
9437;DHT22;4757;59.334;18.034;2022-12-13T12:19:28;-6.90;99.90
9437;DHT22;4757;59.334;18.034;2022-12-13T12:30:20;-7.10;99.90
9437;DHT22;4757;59.334;18.034;2022-12-13T12:40:44;-7.30;99.90
9437;DHT22;4757;59.334;18.034;2022-12-13T12:43:42;-7.30;99.90
9437;DHT22;4757;59.334;18.034;2022-12-13T12:51:34;-7.20;99.90
9437;DHT22;4757;59.334;18.034;2022-12-13T12:59:24;-7.30;99.90
9437;DHT22;4757;59.334;18.034;2022-12-13T13:04:39;-7.30;99.90
9437;DHT22;4757;59.334;18.034;2022-12-13T13:07:21;-7.30;99.90
9437;DHT22;4757;59.334;18.034;2022-12-13T13:09:51;-7.40;99.90
9437;DHT22;4757;59.334;18.034;2022-12-13T13:12:22;-7.50;99.90
9437;DHT22;4757;59.334;18.034;2022-12-13T13:14:56;-7.50;99.90
9437;DHT22;4757;59.334;18.034;2022-12-13T13:20:18;-7.60;99.90
9437;DHT22;4757;59.334;18.034;2022-12-13T13:22:46;-7.60;99.90
9437;DHT22;4757;59.334;18.034;2022-12-13T13:25:34;-7.60;99.90
9437;DHT22;4757;59.334;18.034;2022-12-13T13:28:21;-7.60;99.90
9437;DHT22;4757;59.334;18.034;2022-12-13T13:31:01;-7.50;99.90
9437;DHT22;4757;59.334;18.034;2022-12-13T13:34:00;-7.40;99.90
9437;DHT22;4757;59.334;18.034;2022-12-13T13:36:47;-7.60;99.90
9437;DHT22;4757;59.334;18.034;2022-12-13T13:42:37;-7.60;99.90
9437;DHT22;4757;59.334;18.034;2022-12-13T14:10:12;-7.60;99.90
9437;DHT22;4757;59.334;18.034;2022-12-13T14:26:45;-7.60;99.90
9437;DHT22;4757;59.334;18.034;2022-12-13T14:29:41;-7.50;99.90
9437;DHT22;4757;59.334;18.034;2022-12-13T14:32:29;-7.40;99.90
9437;DHT22;4757;59.334;18.034;2022-12-13T14:34:57;-7.40;99.90
9437;DHT22;4757;59.334;18.034;2022-12-13T14:37:27;-7.70;99.90
9437;DHT22;4757;59.334;18.034;2022-12-13T14:40:00;-7.60;99.90
9437;DHT22;4757;59.334;18.034;2022-12-13T14:42:32;-7.40;99.90
9437;DHT22;4757;59.334;18.034;2022-12-13T14:45:22;-7.40;99.90
9437;DHT22;4757;59.334;18.034;2022-12-13T14:47:53;-7.50;99.90
9437;DHT22;4757;59.334;18.034;2022-12-13T14:50:20;-7.60;99.90
9437;DHT22;4757;59.334;18.034;2022-12-13T14:52:49;-7.60;99.90
9437;DHT22;4757;59.334;18.034;2022-12-13T14:55:26;-7.60;99.90
9437;DHT22;4757;59.334;18.034;2022-12-13T14:57:55;-7.70;99.90
9437;DHT22;4757;59.334;18.034;2022-12-13T15:00:32;-7.70;99.90
9437;DHT22;4757;59.334;18.034;2022-12-13T15:03:02;-7.70;99.90
9437;DHT22;4757;59.334;18.034;2022-12-13T15:05:34;-7.70;99.90
9437;DHT22;4757;59.334;18.034;2022-12-13T15:08:08;-7.70;99.90
9437;DHT22;4757;59.334;18.034;2022-12-13T15:10:42;-7.30;99.90
9437;DHT22;4757;59.334;18.034;2022-12-13T15:15:51;-7.60;99.90
9437;DHT22;4757;59.334;18.034;2022-12-13T15:18:23;-7.70;99.90
9437;DHT22;4757;59.334;18.034;2022-12-13T15:20:52;-7.60;99.90
9437;DHT22;4757;59.334;18.034;2022-12-13T15:23:28;-7.70;99.90
9437;DHT22;4757;59.334;18.034;2022-12-13T15:26:01;-7.60;99.90
9437;DHT22;4757;59.334;18.034;2022-12-13T15:28:34;-7.70;99.90
9437;DHT22;4757;59.334;18.034;2022-12-13T15:31:03;-7.70;99.90
9437;DHT22;4757;59.334;18.034;2022-12-13T15:33:31;-7.70;99.90
9437;DHT22;4757;59.334;18.034;2022-12-13T15:36:24;-7.70;99.90
9437;DHT22;4757;59.334;18.034;2022-12-13T15:41:29;-7.70;99.90
9437;DHT22;4757;59.334;18.034;2022-12-13T15:44:01;-7.70;99.90
9437;DHT22;4757;59.334;18.034;2022-12-13T15:46:31;-7.50;99.90
9437;DHT22;4757;59.334;18.034;2022-12-13T15:49:00;-7.30;99.90
9437;DHT22;4757;59.334;18.034;2022-12-13T15:51:28;-7.60;99.90
9437;DHT22;4757;59.334;18.034;2022-12-13T15:56:40;-7.70;99.90
9437;DHT22;4757;59.334;18.034;2022-12-13T15:59:29;-7.70;99.90
9437;DHT22;4757;59.334;18.034;2022-12-13T16:01:57;-7.70;99.90
9437;DHT22;4757;59.334;18.034;2022-12-13T16:04:27;-7.70;99.90
9437;DHT22;4757;59.334;18.034;2022-12-13T16:06:55;-7.80;99.90
9437;DHT22;4757;59.334;18.034;2022-12-13T16:09:26;-7.70;99.90
9437;DHT22;4757;59.334;18.034;2022-12-13T16:11:59;-7.70;99.90
9437;DHT22;4757;59.334;18.034;2022-12-13T16:14:41;-7.70;99.90
9437;DHT22;4757;59.334;18.034;2022-12-13T16:17:20;-7.70;99.90
9437;DHT22;4757;59.334;18.034;2022-12-13T16:19:54;-7.70;99.90
9437;DHT22;4757;59.334;18.034;2022-12-13T16:22:24;-7.60;99.90
9437;DHT22;4757;59.334;18.034;2022-12-13T16:24:51;-7.50;99.90
9437;DHT22;4757;59.334;18.034;2022-12-13T16:27:18;-7.60;99.90
9437;DHT22;4757;59.334;18.034;2022-12-13T16:29:45;-7.60;99.90
9437;DHT22;4757;59.334;18.034;2022-12-13T16:32:12;-7.60;99.90
9437;DHT22;4757;59.334;18.034;2022-12-13T16:34:39;-7.70;99.90
9437;DHT22;4757;59.334;18.034;2022-12-13T16:37:08;-7.70;99.90
9437;DHT22;4757;59.334;18.034;2022-12-13T16:39:53;-7.70;99.90
9437;DHT22;4757;59.334;18.034;2022-12-13T16:42:23;-7.70;99.90
9437;DHT22;4757;59.334;18.034;2022-12-13T16:44:53;-7.70;99.90
9437;DHT22;4757;59.334;18.034;2022-12-13T16:47:41;-7.60;99.90
9437;DHT22;4757;59.334;18.034;2022-12-13T16:50:16;-7.70;99.90
9437;DHT22;4757;59.334;18.034;2022-12-13T16:52:44;-7.60;99.90
9437;DHT22;4757;59.334;18.034;2022-12-13T16:55:11;-7.70;99.90
9437;DHT22;4757;59.334;18.034;2022-12-13T16:57:38;-7.80;99.90
9437;DHT22;4757;59.334;18.034;2022-12-13T17:00:09;-7.80;99.90
9437;DHT22;4757;59.334;18.034;2022-12-13T17:02:38;-7.70;99.90
9437;DHT22;4757;59.334;18.034;2022-12-13T17:05:05;-7.80;99.90
9437;DHT22;4757;59.334;18.034;2022-12-13T17:07:32;-7.80;99.90
9437;DHT22;4757;59.334;18.034;2022-12-13T17:10:01;-7.90;99.90
9437;DHT22;4757;59.334;18.034;2022-12-13T17:12:29;-7.90;99.90
9437;DHT22;4757;59.334;18.034;2022-12-13T17:14:56;-7.90;99.90
9437;DHT22;4757;59.334;18.034;2022-12-13T17:17:23;-7.80;99.90
9437;DHT22;4757;59.334;18.034;2022-12-13T17:19:50;-7.80;99.90
9437;DHT22;4757;59.334;18.034;2022-12-13T17:22:17;-7.70;99.90
9437;DHT22;4757;59.334;18.034;2022-12-13T17:24:44;-7.70;99.90
9437;DHT22;4757;59.334;18.034;2022-12-13T17:27:11;-7.80;99.90
9437;DHT22;4757;59.334;18.034;2022-12-13T17:29:39;-7.80;99.90
9437;DHT22;4757;59.334;18.034;2022-12-13T17:32:06;-7.90;99.90
9437;DHT22;4757;59.334;18.034;2022-12-13T17:34:33;-7.90;99.90
9437;DHT22;4757;59.334;18.034;2022-12-13T17:37:00;-7.90;99.90
9437;DHT22;4757;59.334;18.034;2022-12-13T17:39:34;-8.00;99.90
9437;DHT22;4757;59.334;18.034;2022-12-13T17:42:01;-8.00;99.90
9437;DHT22;4757;59.334;18.034;2022-12-13T17:44:28;-8.00;99.90
9437;DHT22;4757;59.334;18.034;2022-12-13T17:46:55;-8.00;99.90
9437;DHT22;4757;59.334;18.034;2022-12-13T17:49:23;-8.00;99.90
9437;DHT22;4757;59.334;18.034;2022-12-13T17:51:51;-8.00;99.90
9437;DHT22;4757;59.334;18.034;2022-12-13T17:54:21;-8.10;99.90
9437;DHT22;4757;59.334;18.034;2022-12-13T17:56:50;-7.80;99.90
9437;DHT22;4757;59.334;18.034;2022-12-13T17:59:18;-7.80;99.90
9437;DHT22;4757;59.334;18.034;2022-12-13T18:01:45;-7.70;99.90
9437;DHT22;4757;59.334;18.034;2022-12-13T18:04:13;-7.80;99.90
9437;DHT22;4757;59.334;18.034;2022-12-13T18:06:40;-7.90;99.90
9437;DHT22;4757;59.334;18.034;2022-12-13T18:09:07;-7.90;99.90
9437;DHT22;4757;59.334;18.034;2022-12-13T18:11:34;-7.80;99.90
9437;DHT22;4757;59.334;18.034;2022-12-13T18:14:06;-7.90;99.90
9437;DHT22;4757;59.334;18.034;2022-12-13T18:16:34;-7.80;99.90
9437;DHT22;4757;59.334;18.034;2022-12-13T18:19:06;-7.60;99.90
9437;DHT22;4757;59.334;18.034;2022-12-13T18:21:33;-7.50;99.90
9437;DHT22;4757;59.334;18.034;2022-12-13T18:24:04;-7.50;99.90
9437;DHT22;4757;59.334;18.034;2022-12-13T18:26:31;-7.60;99.90
9437;DHT22;4757;59.334;18.034;2022-12-13T18:28:58;-7.70;99.90
9437;DHT22;4757;59.334;18.034;2022-12-13T18:31:25;-7.80;99.90
9437;DHT22;4757;59.334;18.034;2022-12-13T18:33:54;-7.80;99.90
9437;DHT22;4757;59.334;18.034;2022-12-13T18:36:23;-7.90;99.90
9437;DHT22;4757;59.334;18.034;2022-12-13T18:38:50;-7.80;99.90